<?xml version="1.0" encoding="UTF-8" standalone="no" ?>
<gpx xmlns="http://www.topografix.com/GPX/1/1" xmlns:xsi="http://www.w3.org/2001/XMLSchema-instance" xsi:schemaLocation="http://www.topografix.com/GPX/1/1 http://www.topografix.com/GPX/1/1/gpx.xsd" version="1.1" creator="VisuGPX - https://www.visugpx.com">
  <metadata>
    <name>Plomb du Cantal</name>
    <desc><![CDATA[Aller/retour de la station du super Lioran au Plomb du Cantal.]]></desc>
  </metadata>
  <trk>
    <name><![CDATA[plomb-du-cantal]]></name>
    <trkseg>
      <trkpt lat="45.08317" lon="2.74975">
        <ele>1258</ele>
        <time>2013-09-03T13:57:21Z</time>
      </trkpt>
      <trkpt lat="45.08307" lon="2.75022">
        <ele>1258</ele>
        <time>2013-09-03T13:58:24Z</time>
      </trkpt>
      <trkpt lat="45.08305" lon="2.75023">
        <ele>1397</ele>
        <time>2013-09-03T13:58:26Z</time>
      </trkpt>
      <trkpt lat="45.0829" lon="2.75033">
        <ele>1387</ele>
        <time>2013-09-03T13:58:34Z</time>
      </trkpt>
      <trkpt lat="45.08272" lon="2.7505">
        <ele>1340</ele>
        <time>2013-09-03T13:58:40Z</time>
      </trkpt>
      <trkpt lat="45.0826" lon="2.75078">
        <ele>1336</ele>
        <time>2013-09-03T13:59:03Z</time>
      </trkpt>
      <trkpt lat="45.08258" lon="2.75102">
        <ele>1307</ele>
        <time>2013-09-03T13:59:13Z</time>
      </trkpt>
      <trkpt lat="45.08255" lon="2.75123">
        <ele>1290</ele>
        <time>2013-09-03T13:59:23Z</time>
      </trkpt>
      <trkpt lat="45.08225" lon="2.75192">
        <ele>1284</ele>
        <time>2013-09-03T14:00:07Z</time>
      </trkpt>
      <trkpt lat="45.08217" lon="2.75208">
        <ele>1259</ele>
        <time>2013-09-03T14:00:19Z</time>
      </trkpt>
      <trkpt lat="45.0824" lon="2.75473">
        <ele>1283</ele>
        <time>2013-09-03T14:03:29Z</time>
      </trkpt>
      <trkpt lat="45.08225" lon="2.75548">
        <ele>1343</ele>
        <time>2013-09-03T14:04:50Z</time>
      </trkpt>
      <trkpt lat="45.08138" lon="2.75758">
        <ele>1350</ele>
        <time>2013-09-03T14:07:57Z</time>
      </trkpt>
      <trkpt lat="45.08127" lon="2.75768">
        <ele>1349</ele>
        <time>2013-09-03T14:08:07Z</time>
      </trkpt>
      <trkpt lat="45.08095" lon="2.7584">
        <ele>1349</ele>
        <time>2013-09-03T14:10:00Z</time>
      </trkpt>
      <trkpt lat="45.08153" lon="2.75845">
        <ele>1370</ele>
        <time>2013-09-03T14:10:51Z</time>
      </trkpt>
      <trkpt lat="45.08167" lon="2.75842">
        <ele>1377</ele>
        <time>2013-09-03T14:11:01Z</time>
      </trkpt>
      <trkpt lat="45.08233" lon="2.75875">
        <ele>1386</ele>
        <time>2013-09-03T14:12:54Z</time>
      </trkpt>
      <trkpt lat="45.08208" lon="2.7588">
        <ele>1387</ele>
        <time>2013-09-03T14:13:16Z</time>
      </trkpt>
      <trkpt lat="45.08195" lon="2.75885">
        <ele>1397</ele>
        <time>2013-09-03T14:13:28Z</time>
      </trkpt>
      <trkpt lat="45.08177" lon="2.75897">
        <ele>1392</ele>
        <time>2013-09-03T14:13:46Z</time>
      </trkpt>
      <trkpt lat="45.08153" lon="2.75897">
        <ele>1416</ele>
        <time>2013-09-03T14:14:04Z</time>
      </trkpt>
      <trkpt lat="45.08217" lon="2.75943">
        <ele>1416</ele>
        <time>2013-09-03T14:16:03Z</time>
      </trkpt>
      <trkpt lat="45.08395" lon="2.75878">
        <ele>1437</ele>
        <time>2013-09-03T14:19:13Z</time>
      </trkpt>
      <trkpt lat="45.08448" lon="2.75842">
        <ele>1437</ele>
        <time>2013-09-03T14:20:07Z</time>
      </trkpt>
      <trkpt lat="45.085" lon="2.75827">
        <ele>1448</ele>
        <time>2013-09-03T14:20:48Z</time>
      </trkpt>
      <trkpt lat="45.08422" lon="2.75945">
        <ele>1463</ele>
        <time>2013-09-03T14:28:52Z</time>
      </trkpt>
      <trkpt lat="45.08395" lon="2.7598">
        <ele>1457</ele>
        <time>2013-09-03T14:29:20Z</time>
      </trkpt>
      <trkpt lat="45.08382" lon="2.76002">
        <ele>1447</ele>
        <time>2013-09-03T14:29:38Z</time>
      </trkpt>
      <trkpt lat="45.08347" lon="2.76035">
        <ele>1449</ele>
        <time>2013-09-03T14:30:08Z</time>
      </trkpt>
      <trkpt lat="45.083" lon="2.76053">
        <ele>1453</ele>
        <time>2013-09-03T14:30:53Z</time>
      </trkpt>
      <trkpt lat="45.08155" lon="2.76227">
        <ele>1482</ele>
        <time>2013-09-03T14:34:53Z</time>
      </trkpt>
      <trkpt lat="45.08115" lon="2.76288">
        <ele>1482</ele>
        <time>2013-09-03T14:35:59Z</time>
      </trkpt>
      <trkpt lat="45.08093" lon="2.76315">
        <ele>1482</ele>
        <time>2013-09-03T14:36:28Z</time>
      </trkpt>
      <trkpt lat="45.07968" lon="2.7642">
        <ele>1482</ele>
        <time>2013-09-03T14:39:39Z</time>
      </trkpt>
      <trkpt lat="45.07828" lon="2.76575">
        <ele>1560</ele>
        <time>2013-09-03T14:43:41Z</time>
      </trkpt>
      <trkpt lat="45.07695" lon="2.76723">
        <ele>1637</ele>
        <time>2013-09-03T14:51:17Z</time>
      </trkpt>
      <trkpt lat="45.07662" lon="2.7682">
        <ele>1637</ele>
        <time>2013-09-03T14:55:27Z</time>
      </trkpt>
      <trkpt lat="45.07673" lon="2.76862">
        <ele>1668</ele>
        <time>2013-09-03T14:55:56Z</time>
      </trkpt>
      <trkpt lat="45.07685" lon="2.76903">
        <ele>1674</ele>
        <time>2013-09-03T14:56:26Z</time>
      </trkpt>
      <trkpt lat="45.07697" lon="2.7692">
        <ele>1672</ele>
        <time>2013-09-03T14:56:36Z</time>
      </trkpt>
      <trkpt lat="45.07747" lon="2.7703">
        <ele>1664</ele>
        <time>2013-09-03T15:00:12Z</time>
      </trkpt>
      <trkpt lat="45.0775" lon="2.77053">
        <ele>1664</ele>
        <time>2013-09-03T15:00:30Z</time>
      </trkpt>
      <trkpt lat="45.07592" lon="2.76968">
        <ele>1663</ele>
        <time>2013-09-03T15:06:39Z</time>
      </trkpt>
      <trkpt lat="45.07545" lon="2.76943">
        <ele>1724</ele>
        <time>2013-09-03T15:07:34Z</time>
      </trkpt>
      <trkpt lat="45.07408" lon="2.7687">
        <ele>1723</ele>
        <time>2013-09-03T15:11:19Z</time>
      </trkpt>
      <trkpt lat="45.0726" lon="2.7672">
        <ele>1739</ele>
        <time>2013-09-03T15:16:20Z</time>
      </trkpt>
      <trkpt lat="45.07222" lon="2.76697">
        <ele>1757</ele>
        <time>2013-09-03T15:17:17Z</time>
      </trkpt>
      <trkpt lat="45.07042" lon="2.76748">
        <ele>1757</ele>
        <time>2013-09-03T15:20:46Z</time>
      </trkpt>
      <trkpt lat="45.0686" lon="2.76787">
        <ele>1749</ele>
        <time>2013-09-03T15:24:12Z</time>
      </trkpt>
      <trkpt lat="45.06845" lon="2.76785">
        <ele>1763</ele>
        <time>2013-09-03T15:24:24Z</time>
      </trkpt>
      <trkpt lat="45.06832" lon="2.7678">
        <ele>1763</ele>
        <time>2013-09-03T15:24:36Z</time>
      </trkpt>
      <trkpt lat="45.06748" lon="2.76732">
        <ele>1763</ele>
        <time>2013-09-03T15:26:15Z</time>
      </trkpt>
      <trkpt lat="45.06673" lon="2.76642">
        <ele>1768</ele>
        <time>2013-09-03T15:27:56Z</time>
      </trkpt>
      <trkpt lat="45.06533" lon="2.76467">
        <ele>1756</ele>
        <time>2013-09-03T15:30:55Z</time>
      </trkpt>
      <trkpt lat="45.06415" lon="2.76268">
        <ele>1779</ele>
        <time>2013-09-03T15:33:45Z</time>
      </trkpt>
      <trkpt lat="45.06277" lon="2.76127">
        <ele>1779</ele>
        <time>2013-09-03T15:40:24Z</time>
      </trkpt>
      <trkpt lat="45.0626" lon="2.7613">
        <ele>1805</ele>
        <time>2013-09-03T15:40:36Z</time>
      </trkpt>
      <trkpt lat="45.06195" lon="2.76118">
        <ele>1809</ele>
        <time>2013-09-03T15:41:29Z</time>
      </trkpt>
      <trkpt lat="45.06183" lon="2.7613">
        <ele>1809</ele>
        <time>2013-09-03T15:41:41Z</time>
      </trkpt>
      <trkpt lat="45.06163" lon="2.76145">
        <ele>1810</ele>
        <time>2013-09-03T15:41:59Z</time>
      </trkpt>
      <trkpt lat="45.06137" lon="2.76157">
        <ele>1813</ele>
        <time>2013-09-03T15:42:21Z</time>
      </trkpt>
      <trkpt lat="45.06123" lon="2.7616">
        <ele>1813</ele>
        <time>2013-09-03T15:42:31Z</time>
      </trkpt>
      <trkpt lat="45.05953" lon="2.7617">
        <ele>1838</ele>
        <time>2013-09-03T15:45:41Z</time>
      </trkpt>
      <trkpt lat="45.05935" lon="2.76187">
        <ele>1838</ele>
        <time>2013-09-03T15:52:54Z</time>
      </trkpt>
      <trkpt lat="45.06018" lon="2.76108">
        <ele>1827</ele>
        <time>2013-09-03T16:04:25Z</time>
      </trkpt>
      <trkpt lat="45.06033" lon="2.76108">
        <ele>1826</ele>
        <time>2013-09-03T16:04:37Z</time>
      </trkpt>
      <trkpt lat="45.0606" lon="2.76108">
        <ele>1825</ele>
        <time>2013-09-03T16:04:55Z</time>
      </trkpt>
      <trkpt lat="45.06088" lon="2.76102">
        <ele>1823</ele>
        <time>2013-09-03T16:05:15Z</time>
      </trkpt>
      <trkpt lat="45.06103" lon="2.76097">
        <ele>1821</ele>
        <time>2013-09-03T16:05:27Z</time>
      </trkpt>
      <trkpt lat="45.06117" lon="2.76093">
        <ele>1821</ele>
        <time>2013-09-03T16:05:37Z</time>
      </trkpt>
      <trkpt lat="45.06132" lon="2.76087">
        <ele>1820</ele>
        <time>2013-09-03T16:05:47Z</time>
      </trkpt>
      <trkpt lat="45.0615" lon="2.76085">
        <ele>1818</ele>
        <time>2013-09-03T16:05:59Z</time>
      </trkpt>
      <trkpt lat="45.06167" lon="2.76085">
        <ele>1816</ele>
        <time>2013-09-03T16:06:12Z</time>
      </trkpt>
      <trkpt lat="45.0618" lon="2.7609">
        <ele>1815</ele>
        <time>2013-09-03T16:06:20Z</time>
      </trkpt>
      <trkpt lat="45.06195" lon="2.761">
        <ele>1815</ele>
        <time>2013-09-03T16:06:32Z</time>
      </trkpt>
      <trkpt lat="45.06217" lon="2.76113">
        <ele>1812</ele>
        <time>2013-09-03T16:06:50Z</time>
      </trkpt>
      <trkpt lat="45.0623" lon="2.76118">
        <ele>1811</ele>
        <time>2013-09-03T16:06:58Z</time>
      </trkpt>
      <trkpt lat="45.06245" lon="2.76123">
        <ele>1809</ele>
        <time>2013-09-03T16:07:08Z</time>
      </trkpt>
      <trkpt lat="45.06258" lon="2.76128">
        <ele>1808</ele>
        <time>2013-09-03T16:07:18Z</time>
      </trkpt>
      <trkpt lat="45.06273" lon="2.76125">
        <ele>1807</ele>
        <time>2013-09-03T16:07:28Z</time>
      </trkpt>
      <trkpt lat="45.06287" lon="2.76118">
        <ele>1808</ele>
        <time>2013-09-03T16:07:38Z</time>
      </trkpt>
      <trkpt lat="45.06307" lon="2.7611">
        <ele>1807</ele>
        <time>2013-09-03T16:07:55Z</time>
      </trkpt>
      <trkpt lat="45.0632" lon="2.76107">
        <ele>1806</ele>
        <time>2013-09-03T16:08:05Z</time>
      </trkpt>
      <trkpt lat="45.06333" lon="2.76115">
        <ele>1806</ele>
        <time>2013-09-03T16:08:17Z</time>
      </trkpt>
      <trkpt lat="45.06343" lon="2.76132">
        <ele>1805</ele>
        <time>2013-09-03T16:08:29Z</time>
      </trkpt>
      <trkpt lat="45.06353" lon="2.76147">
        <ele>1803</ele>
        <time>2013-09-03T16:08:41Z</time>
      </trkpt>
      <trkpt lat="45.06365" lon="2.76162">
        <ele>1801</ele>
        <time>2013-09-03T16:08:53Z</time>
      </trkpt>
      <trkpt lat="45.06378" lon="2.7617">
        <ele>1801</ele>
        <time>2013-09-03T16:09:03Z</time>
      </trkpt>
      <trkpt lat="45.06393" lon="2.76182">
        <ele>1795</ele>
        <time>2013-09-03T16:09:21Z</time>
      </trkpt>
      <trkpt lat="45.06405" lon="2.76195">
        <ele>1793</ele>
        <time>2013-09-03T16:09:31Z</time>
      </trkpt>
      <trkpt lat="45.06417" lon="2.76207">
        <ele>1791</ele>
        <time>2013-09-03T16:09:41Z</time>
      </trkpt>
      <trkpt lat="45.06428" lon="2.7622">
        <ele>1790</ele>
        <time>2013-09-03T16:09:52Z</time>
      </trkpt>
      <trkpt lat="45.06442" lon="2.76228">
        <ele>1789</ele>
        <time>2013-09-03T16:10:02Z</time>
      </trkpt>
      <trkpt lat="45.06457" lon="2.7624">
        <ele>1788</ele>
        <time>2013-09-03T16:10:12Z</time>
      </trkpt>
      <trkpt lat="45.0647" lon="2.7625">
        <ele>1787</ele>
        <time>2013-09-03T16:10:22Z</time>
      </trkpt>
      <trkpt lat="45.06485" lon="2.76257">
        <ele>1787</ele>
        <time>2013-09-03T16:10:32Z</time>
      </trkpt>
      <trkpt lat="45.06498" lon="2.76272">
        <ele>1786</ele>
        <time>2013-09-03T16:10:44Z</time>
      </trkpt>
      <trkpt lat="45.0652" lon="2.76282">
        <ele>1784</ele>
        <time>2013-09-03T16:11:04Z</time>
      </trkpt>
      <trkpt lat="45.06533" lon="2.76292">
        <ele>1783</ele>
        <time>2013-09-03T16:11:16Z</time>
      </trkpt>
      <trkpt lat="45.0655" lon="2.7629">
        <ele>1782</ele>
        <time>2013-09-03T16:11:34Z</time>
      </trkpt>
      <trkpt lat="45.06543" lon="2.76273">
        <ele>1778</ele>
        <time>2013-09-03T16:11:46Z</time>
      </trkpt>
      <trkpt lat="45.06532" lon="2.76255">
        <ele>1772</ele>
        <time>2013-09-03T16:11:58Z</time>
      </trkpt>
      <trkpt lat="45.06535" lon="2.76235">
        <ele>1769</ele>
        <time>2013-09-03T16:12:11Z</time>
      </trkpt>
      <trkpt lat="45.0655" lon="2.76238">
        <ele>1766</ele>
        <time>2013-09-03T16:12:23Z</time>
      </trkpt>
      <trkpt lat="45.06565" lon="2.76243">
        <ele>1763</ele>
        <time>2013-09-03T16:12:33Z</time>
      </trkpt>
      <trkpt lat="45.06578" lon="2.76247">
        <ele>1762</ele>
        <time>2013-09-03T16:12:43Z</time>
      </trkpt>
      <trkpt lat="45.06593" lon="2.76253">
        <ele>1759</ele>
        <time>2013-09-03T16:12:55Z</time>
      </trkpt>
      <trkpt lat="45.06608" lon="2.76263">
        <ele>1756</ele>
        <time>2013-09-03T16:13:07Z</time>
      </trkpt>
      <trkpt lat="45.06622" lon="2.76268">
        <ele>1754</ele>
        <time>2013-09-03T16:13:17Z</time>
      </trkpt>
      <trkpt lat="45.06635" lon="2.76278">
        <ele>1752</ele>
        <time>2013-09-03T16:13:27Z</time>
      </trkpt>
      <trkpt lat="45.0665" lon="2.76285">
        <ele>1749</ele>
        <time>2013-09-03T16:13:39Z</time>
      </trkpt>
      <trkpt lat="45.06663" lon="2.76288">
        <ele>1746</ele>
        <time>2013-09-03T16:13:49Z</time>
      </trkpt>
      <trkpt lat="45.06655" lon="2.7626">
        <ele>1742</ele>
        <time>2013-09-03T16:15:44Z</time>
      </trkpt>
      <trkpt lat="45.06642" lon="2.76247">
        <ele>1738</ele>
        <time>2013-09-03T16:15:55Z</time>
      </trkpt>
      <trkpt lat="45.06632" lon="2.76232">
        <ele>1731</ele>
        <time>2013-09-03T16:16:05Z</time>
      </trkpt>
      <trkpt lat="45.06615" lon="2.76202">
        <ele>1724</ele>
        <time>2013-09-03T16:16:23Z</time>
      </trkpt>
      <trkpt lat="45.06605" lon="2.76183">
        <ele>1720</ele>
        <time>2013-09-03T16:16:33Z</time>
      </trkpt>
      <trkpt lat="45.0659" lon="2.7615">
        <ele>1714</ele>
        <time>2013-09-03T16:16:51Z</time>
      </trkpt>
      <trkpt lat="45.06583" lon="2.76133">
        <ele>1711</ele>
        <time>2013-09-03T16:16:59Z</time>
      </trkpt>
      <trkpt lat="45.06573" lon="2.76118">
        <ele>1708</ele>
        <time>2013-09-03T16:17:09Z</time>
      </trkpt>
      <trkpt lat="45.06557" lon="2.76107">
        <ele>1706</ele>
        <time>2013-09-03T16:17:19Z</time>
      </trkpt>
      <trkpt lat="45.06543" lon="2.76098">
        <ele>1704</ele>
        <time>2013-09-03T16:17:29Z</time>
      </trkpt>
      <trkpt lat="45.0653" lon="2.76082">
        <ele>1701</ele>
        <time>2013-09-03T16:17:39Z</time>
      </trkpt>
      <trkpt lat="45.06528" lon="2.76062">
        <ele>1695</ele>
        <time>2013-09-03T16:17:52Z</time>
      </trkpt>
      <trkpt lat="45.06543" lon="2.7606">
        <ele>1693</ele>
        <time>2013-09-03T16:18:00Z</time>
      </trkpt>
      <trkpt lat="45.06557" lon="2.76068">
        <ele>1693</ele>
        <time>2013-09-03T16:18:08Z</time>
      </trkpt>
      <trkpt lat="45.06575" lon="2.7607">
        <ele>1691</ele>
        <time>2013-09-03T16:18:20Z</time>
      </trkpt>
      <trkpt lat="45.06593" lon="2.76072">
        <ele>1688</ele>
        <time>2013-09-03T16:18:32Z</time>
      </trkpt>
      <trkpt lat="45.06607" lon="2.76075">
        <ele>1685</ele>
        <time>2013-09-03T16:18:40Z</time>
      </trkpt>
      <trkpt lat="45.0662" lon="2.76083">
        <ele>1682</ele>
        <time>2013-09-03T16:18:50Z</time>
      </trkpt>
      <trkpt lat="45.06635" lon="2.76095">
        <ele>1681</ele>
        <time>2013-09-03T16:19:00Z</time>
      </trkpt>
      <trkpt lat="45.06648" lon="2.76107">
        <ele>1677</ele>
        <time>2013-09-03T16:19:08Z</time>
      </trkpt>
      <trkpt lat="45.06662" lon="2.76117">
        <ele>1672</ele>
        <time>2013-09-03T16:19:20Z</time>
      </trkpt>
      <trkpt lat="45.06663" lon="2.76085">
        <ele>1668</ele>
        <time>2013-09-03T16:19:55Z</time>
      </trkpt>
      <trkpt lat="45.06627" lon="2.75952">
        <ele>1657</ele>
        <time>2013-09-03T16:22:12Z</time>
      </trkpt>
      <trkpt lat="45.06718" lon="2.7574">
        <ele>1617</ele>
        <time>2013-09-03T16:26:20Z</time>
      </trkpt>
      <trkpt lat="45.06735" lon="2.75715">
        <ele>1550</ele>
        <time>2013-09-03T16:26:44Z</time>
      </trkpt>
      <trkpt lat="45.06747" lon="2.75693">
        <ele>1540</ele>
        <time>2013-09-03T16:27:02Z</time>
      </trkpt>
      <trkpt lat="45.06767" lon="2.7566">
        <ele>1540</ele>
        <time>2013-09-03T16:27:38Z</time>
      </trkpt>
      <trkpt lat="45.06783" lon="2.75648">
        <ele>1527</ele>
        <time>2013-09-03T16:27:59Z</time>
      </trkpt>
      <trkpt lat="45.06795" lon="2.7561">
        <ele>1516</ele>
        <time>2013-09-03T16:28:57Z</time>
      </trkpt>
      <trkpt lat="45.06802" lon="2.75583">
        <ele>1514</ele>
        <time>2013-09-03T16:29:15Z</time>
      </trkpt>
      <trkpt lat="45.06803" lon="2.75563">
        <ele>1511</ele>
        <time>2013-09-03T16:29:27Z</time>
      </trkpt>
      <trkpt lat="45.06815" lon="2.7554">
        <ele>1511</ele>
        <time>2013-09-03T16:29:44Z</time>
      </trkpt>
      <trkpt lat="45.06847" lon="2.75485">
        <ele>1509</ele>
        <time>2013-09-03T16:30:28Z</time>
      </trkpt>
      <trkpt lat="45.06857" lon="2.7547">
        <ele>1491</ele>
        <time>2013-09-03T16:30:40Z</time>
      </trkpt>
      <trkpt lat="45.06867" lon="2.75453">
        <ele>1490</ele>
        <time>2013-09-03T16:30:50Z</time>
      </trkpt>
      <trkpt lat="45.06873" lon="2.75435">
        <ele>1488</ele>
        <time>2013-09-03T16:31:02Z</time>
      </trkpt>
      <trkpt lat="45.06883" lon="2.7542">
        <ele>1485</ele>
        <time>2013-09-03T16:31:12Z</time>
      </trkpt>
      <trkpt lat="45.06893" lon="2.75405">
        <ele>1484</ele>
        <time>2013-09-03T16:31:22Z</time>
      </trkpt>
      <trkpt lat="45.06903" lon="2.75388">
        <ele>1480</ele>
        <time>2013-09-03T16:31:35Z</time>
      </trkpt>
      <trkpt lat="45.06912" lon="2.75373">
        <ele>1473</ele>
        <time>2013-09-03T16:31:45Z</time>
      </trkpt>
      <trkpt lat="45.06922" lon="2.75358">
        <ele>1469</ele>
        <time>2013-09-03T16:31:55Z</time>
      </trkpt>
      <trkpt lat="45.06935" lon="2.75345">
        <ele>1467</ele>
        <time>2013-09-03T16:32:07Z</time>
      </trkpt>
      <trkpt lat="45.06948" lon="2.75335">
        <ele>1467</ele>
        <time>2013-09-03T16:32:17Z</time>
      </trkpt>
      <trkpt lat="45.06962" lon="2.75323">
        <ele>1467</ele>
        <time>2013-09-03T16:32:29Z</time>
      </trkpt>
      <trkpt lat="45.06973" lon="2.75312">
        <ele>1467</ele>
        <time>2013-09-03T16:32:39Z</time>
      </trkpt>
      <trkpt lat="45.06985" lon="2.75302">
        <ele>1469</ele>
        <time>2013-09-03T16:32:51Z</time>
      </trkpt>
      <trkpt lat="45.06998" lon="2.75293">
        <ele>1468</ele>
        <time>2013-09-03T16:33:34Z</time>
      </trkpt>
      <trkpt lat="45.07018" lon="2.75283">
        <ele>1465</ele>
        <time>2013-09-03T16:33:52Z</time>
      </trkpt>
      <trkpt lat="45.07032" lon="2.7528">
        <ele>1463</ele>
        <time>2013-09-03T16:34:02Z</time>
      </trkpt>
      <trkpt lat="45.07045" lon="2.75277">
        <ele>1461</ele>
        <time>2013-09-03T16:34:12Z</time>
      </trkpt>
      <trkpt lat="45.07063" lon="2.75278">
        <ele>1453</ele>
        <time>2013-09-03T16:34:30Z</time>
      </trkpt>
      <trkpt lat="45.07087" lon="2.75277">
        <ele>1443</ele>
        <time>2013-09-03T16:34:48Z</time>
      </trkpt>
      <trkpt lat="45.07105" lon="2.75275">
        <ele>1437</ele>
        <time>2013-09-03T16:35:06Z</time>
      </trkpt>
      <trkpt lat="45.07122" lon="2.7528">
        <ele>1430</ele>
        <time>2013-09-03T16:35:25Z</time>
      </trkpt>
      <trkpt lat="45.0716" lon="2.75295">
        <ele>1429</ele>
        <time>2013-09-03T16:36:19Z</time>
      </trkpt>
      <trkpt lat="45.07172" lon="2.75285">
        <ele>1409</ele>
        <time>2013-09-03T16:36:31Z</time>
      </trkpt>
      <trkpt lat="45.07213" lon="2.753">
        <ele>1404</ele>
        <time>2013-09-03T16:37:28Z</time>
      </trkpt>
      <trkpt lat="45.07233" lon="2.75293">
        <ele>1392</ele>
        <time>2013-09-03T16:37:46Z</time>
      </trkpt>
      <trkpt lat="45.07245" lon="2.75282">
        <ele>1390</ele>
        <time>2013-09-03T16:37:56Z</time>
      </trkpt>
      <trkpt lat="45.07258" lon="2.75277">
        <ele>1386</ele>
        <time>2013-09-03T16:38:06Z</time>
      </trkpt>
      <trkpt lat="45.07273" lon="2.7527">
        <ele>1385</ele>
        <time>2013-09-03T16:38:16Z</time>
      </trkpt>
      <trkpt lat="45.07287" lon="2.75267">
        <ele>1383</ele>
        <time>2013-09-03T16:38:26Z</time>
      </trkpt>
      <trkpt lat="45.07303" lon="2.75267">
        <ele>1382</ele>
        <time>2013-09-03T16:38:36Z</time>
      </trkpt>
      <trkpt lat="45.0732" lon="2.75265">
        <ele>1382</ele>
        <time>2013-09-03T16:38:48Z</time>
      </trkpt>
      <trkpt lat="45.07335" lon="2.75263">
        <ele>1382</ele>
        <time>2013-09-03T16:39:00Z</time>
      </trkpt>
      <trkpt lat="45.0735" lon="2.75265">
        <ele>1380</ele>
        <time>2013-09-03T16:39:10Z</time>
      </trkpt>
      <trkpt lat="45.0737" lon="2.75268">
        <ele>1378</ele>
        <time>2013-09-03T16:39:27Z</time>
      </trkpt>
      <trkpt lat="45.07383" lon="2.75275">
        <ele>1379</ele>
        <time>2013-09-03T16:39:37Z</time>
      </trkpt>
      <trkpt lat="45.07397" lon="2.75278">
        <ele>1381</ele>
        <time>2013-09-03T16:39:47Z</time>
      </trkpt>
      <trkpt lat="45.07415" lon="2.7528">
        <ele>1381</ele>
        <time>2013-09-03T16:40:15Z</time>
      </trkpt>
      <trkpt lat="45.0743" lon="2.7528">
        <ele>1376</ele>
        <time>2013-09-03T16:40:25Z</time>
      </trkpt>
      <trkpt lat="45.07458" lon="2.7527">
        <ele>1375</ele>
        <time>2013-09-03T16:40:51Z</time>
      </trkpt>
      <trkpt lat="45.07472" lon="2.7526">
        <ele>1359</ele>
        <time>2013-09-03T16:41:01Z</time>
      </trkpt>
      <trkpt lat="45.07487" lon="2.75253">
        <ele>1358</ele>
        <time>2013-09-03T16:41:13Z</time>
      </trkpt>
      <trkpt lat="45.07503" lon="2.75252">
        <ele>1359</ele>
        <time>2013-09-03T16:41:23Z</time>
      </trkpt>
      <trkpt lat="45.07518" lon="2.75243">
        <ele>1365</ele>
        <time>2013-09-03T16:41:36Z</time>
      </trkpt>
      <trkpt lat="45.07532" lon="2.75235">
        <ele>1352</ele>
        <time>2013-09-03T16:41:46Z</time>
      </trkpt>
      <trkpt lat="45.07545" lon="2.75227">
        <ele>1351</ele>
        <time>2013-09-03T16:41:56Z</time>
      </trkpt>
      <trkpt lat="45.07558" lon="2.75222">
        <ele>1347</ele>
        <time>2013-09-03T16:42:06Z</time>
      </trkpt>
      <trkpt lat="45.07573" lon="2.75217">
        <ele>1345</ele>
        <time>2013-09-03T16:42:16Z</time>
      </trkpt>
      <trkpt lat="45.0759" lon="2.75213">
        <ele>1347</ele>
        <time>2013-09-03T16:42:28Z</time>
      </trkpt>
      <trkpt lat="45.07618" lon="2.75208">
        <ele>1347</ele>
        <time>2013-09-03T16:42:46Z</time>
      </trkpt>
      <trkpt lat="45.07633" lon="2.75205">
        <ele>1351</ele>
        <time>2013-09-03T16:42:56Z</time>
      </trkpt>
      <trkpt lat="45.07647" lon="2.75197">
        <ele>1340</ele>
        <time>2013-09-03T16:43:06Z</time>
      </trkpt>
      <trkpt lat="45.0766" lon="2.75187">
        <ele>1335</ele>
        <time>2013-09-03T16:43:16Z</time>
      </trkpt>
      <trkpt lat="45.07672" lon="2.7517">
        <ele>1328</ele>
        <time>2013-09-03T16:43:29Z</time>
      </trkpt>
      <trkpt lat="45.07683" lon="2.75158">
        <ele>1329</ele>
        <time>2013-09-03T16:43:39Z</time>
      </trkpt>
      <trkpt lat="45.07693" lon="2.75145">
        <ele>1327</ele>
        <time>2013-09-03T16:43:49Z</time>
      </trkpt>
      <trkpt lat="45.07707" lon="2.75135">
        <ele>1322</ele>
        <time>2013-09-03T16:43:59Z</time>
      </trkpt>
      <trkpt lat="45.07723" lon="2.75122">
        <ele>1316</ele>
        <time>2013-09-03T16:44:11Z</time>
      </trkpt>
      <trkpt lat="45.07737" lon="2.75117">
        <ele>1310</ele>
        <time>2013-09-03T16:44:21Z</time>
      </trkpt>
      <trkpt lat="45.07762" lon="2.7511">
        <ele>1306</ele>
        <time>2013-09-03T16:44:39Z</time>
      </trkpt>
      <trkpt lat="45.07778" lon="2.75108">
        <ele>1300</ele>
        <time>2013-09-03T16:44:51Z</time>
      </trkpt>
      <trkpt lat="45.07792" lon="2.751">
        <ele>1294</ele>
        <time>2013-09-03T16:45:01Z</time>
      </trkpt>
      <trkpt lat="45.07805" lon="2.75093">
        <ele>1291</ele>
        <time>2013-09-03T16:45:11Z</time>
      </trkpt>
      <trkpt lat="45.0783" lon="2.75082">
        <ele>1287</ele>
        <time>2013-09-03T16:45:30Z</time>
      </trkpt>
      <trkpt lat="45.07847" lon="2.75077">
        <ele>1288</ele>
        <time>2013-09-03T16:45:40Z</time>
      </trkpt>
      <trkpt lat="45.07863" lon="2.75073">
        <ele>1288</ele>
        <time>2013-09-03T16:45:52Z</time>
      </trkpt>
      <trkpt lat="45.07882" lon="2.75075">
        <ele>1291</ele>
        <time>2013-09-03T16:46:04Z</time>
      </trkpt>
      <trkpt lat="45.07898" lon="2.75078">
        <ele>1294</ele>
        <time>2013-09-03T16:46:16Z</time>
      </trkpt>
      <trkpt lat="45.0791" lon="2.7509">
        <ele>1290</ele>
        <time>2013-09-03T16:46:28Z</time>
      </trkpt>
      <trkpt lat="45.07913" lon="2.75113">
        <ele>1283</ele>
        <time>2013-09-03T16:46:40Z</time>
      </trkpt>
      <trkpt lat="45.0792" lon="2.75135">
        <ele>1281</ele>
        <time>2013-09-03T16:46:58Z</time>
      </trkpt>
      <trkpt lat="45.07935" lon="2.75143">
        <ele>1283</ele>
        <time>2013-09-03T16:47:08Z</time>
      </trkpt>
      <trkpt lat="45.07948" lon="2.75155">
        <ele>1281</ele>
        <time>2013-09-03T16:47:18Z</time>
      </trkpt>
      <trkpt lat="45.07962" lon="2.75167">
        <ele>1282</ele>
        <time>2013-09-03T16:47:30Z</time>
      </trkpt>
      <trkpt lat="45.07975" lon="2.75172">
        <ele>1281</ele>
        <time>2013-09-03T16:47:39Z</time>
      </trkpt>
      <trkpt lat="45.0799" lon="2.75177">
        <ele>1280</ele>
        <time>2013-09-03T16:47:49Z</time>
      </trkpt>
      <trkpt lat="45.08005" lon="2.75173">
        <ele>1277</ele>
        <time>2013-09-03T16:47:59Z</time>
      </trkpt>
      <trkpt lat="45.08018" lon="2.75167">
        <ele>1273</ele>
        <time>2013-09-03T16:48:09Z</time>
      </trkpt>
      <trkpt lat="45.08033" lon="2.75157">
        <ele>1269</ele>
        <time>2013-09-03T16:48:21Z</time>
      </trkpt>
      <trkpt lat="45.08047" lon="2.75147">
        <ele>1266</ele>
        <time>2013-09-03T16:48:33Z</time>
      </trkpt>
      <trkpt lat="45.08062" lon="2.75135">
        <ele>1262</ele>
        <time>2013-09-03T16:48:45Z</time>
      </trkpt>
      <trkpt lat="45.08077" lon="2.75128">
        <ele>1260</ele>
        <time>2013-09-03T16:48:55Z</time>
      </trkpt>
      <trkpt lat="45.0809" lon="2.75125">
        <ele>1258</ele>
        <time>2013-09-03T16:49:05Z</time>
      </trkpt>
      <trkpt lat="45.08102" lon="2.75115">
        <ele>1256</ele>
        <time>2013-09-03T16:49:15Z</time>
      </trkpt>
      <trkpt lat="45.08115" lon="2.75107">
        <ele>1254</ele>
        <time>2013-09-03T16:49:25Z</time>
      </trkpt>
      <trkpt lat="45.08132" lon="2.751">
        <ele>1253</ele>
        <time>2013-09-03T16:49:35Z</time>
      </trkpt>
      <trkpt lat="45.08147" lon="2.75093">
        <ele>1251</ele>
        <time>2013-09-03T16:49:48Z</time>
      </trkpt>
      <trkpt lat="45.08162" lon="2.75083">
        <ele>1250</ele>
        <time>2013-09-03T16:50:00Z</time>
      </trkpt>
      <trkpt lat="45.08175" lon="2.75073">
        <ele>1249</ele>
        <time>2013-09-03T16:50:12Z</time>
      </trkpt>
      <trkpt lat="45.08187" lon="2.75058">
        <ele>1249</ele>
        <time>2013-09-03T16:50:24Z</time>
      </trkpt>
      <trkpt lat="45.08197" lon="2.75045">
        <ele>1248</ele>
        <time>2013-09-03T16:50:36Z</time>
      </trkpt>
      <trkpt lat="45.08212" lon="2.75027">
        <ele>1247</ele>
        <time>2013-09-03T16:50:54Z</time>
      </trkpt>
      <trkpt lat="45.08218" lon="2.7501">
        <ele>1245</ele>
        <time>2013-09-03T16:51:04Z</time>
      </trkpt>
      <trkpt lat="45.08222" lon="2.7499">
        <ele>1244</ele>
        <time>2013-09-03T16:51:16Z</time>
      </trkpt>
      <trkpt lat="45.08228" lon="2.74972">
        <ele>1244</ele>
        <time>2013-09-03T16:51:28Z</time>
      </trkpt>
      <trkpt lat="45.08238" lon="2.74957">
        <ele>1243</ele>
        <time>2013-09-03T16:51:38Z</time>
      </trkpt>
      <trkpt lat="45.08265" lon="2.74968">
        <ele>1239</ele>
        <time>2013-09-03T16:52:15Z</time>
      </trkpt>
      <trkpt lat="45.08305" lon="2.74982">
        <ele>1242</ele>
        <time>2013-09-03T16:53:23Z</time>
      </trkpt>
      <trkpt lat="45.08322" lon="2.74967">
        <ele>1251</ele>
        <time>2013-09-03T16:53:41Z</time>
      </trkpt>
      <trkpt lat="45.08338" lon="2.74965">
        <ele>1254</ele>
        <time>2013-09-03T16:53:54Z</time>
      </trkpt>
      <trkpt lat="45.08353" lon="2.74962">
        <ele>1252</ele>
        <time>2013-09-03T16:54:04Z</time>
      </trkpt>
      <trkpt lat="45.08392" lon="2.74852">
        <ele>1239</ele>
        <time>2013-09-03T16:57:01Z</time>
      </trkpt>
    </trkseg>
  </trk>
</gpx>